Data for 01/23/2017

Time Sea-Level Adjusted Pressure Absolute Pressure Temperature Relative Humidity Dew Point   
(mb) (inHg) (mb) (inHg) (C) (F) (%) (C) (F)
00:05 1006 29.71 835 24.66 -1.9 28.5 63 -8.1 17.5
00:10 1006 29.71 835 24.66 -1.9 28.6 63 -8 17.7
00:15 1006 29.71 835 24.66 -1.9 28.6 63 -8 17.5
00:20 1006 29.71 835 24.66 -1.9 28.6 64 -7.8 18
00:25 1006 29.71 835 24.66 -2.3 27.9 68 -7.5 18.5
00:30 1006 29.71 835 24.66 -2.9 26.8 68 -7.9 17.8
00:35 1006 29.71 835 24.66 -3.3 26 69 -8.1 17.4
00:40 1006 29.71 835 24.66 -3.4 25.9 69 -8.3 17
00:45 1006 29.71 835 24.66 -3.2 26.2 68 -8.2 17.2
00:50 1006 29.71 835 24.66 -2.9 26.8 66 -8.3 17
00:55 1006 29.71 835 24.66 -3.6 25.4 70 -8.4 16.8
01:00 1006 29.71 835 24.66 -3.8 25.2 70 -8.4 16.8
01:05 1005 29.68 835 24.66 -3.8 25.2 70 -8.5 16.7
01:10 1005 29.68 835 24.66 -3.7 25.4 69 -8.6 16.6
01:15 1005 29.68 835 24.66 -3.6 25.4 70 -8.4 16.8
01:20 1005 29.68 835 24.66 -3.8 25.1 71 -8.4 16.9
01:25 1005 29.68 835 24.66 -3.9 25 70 -8.5 16.7
01:30 1005 29.68 834 24.63 -3.9 25 71 -8.4 16.8
01:35 1005 29.68 834 24.63 -4 24.8 71 -8.5 16.8
01:40 1005 29.68 834 24.63 -4.1 24.6 72 -8.5 16.8
01:45 1005 29.68 834 24.63 -4 24.8 71 -8.5 16.7
01:50 1005 29.68 834 24.63 -3.8 25.1 69 -8.7 16.4
01:55 1005 29.68 834 24.63 -3.7 25.4 69 -8.6 16.6
02:00 1005 29.68 834 24.63 -3.7 25.3 69 -8.6 16.6
02:05 1005 29.68 834 24.63 -3.8 25.2 70 -8.5 16.7
02:10 1005 29.68 834 24.63 -3.8 25.1 70 -8.6 16.6
02:15 1005 29.68 835 24.66 -3.9 24.9 70 -8.7 16.4
02:20 1005 29.68 835 24.66 -4.2 24.5 70 -8.9 16
02:25 1005 29.68 835 24.66 -4.3 24.3 71 -8.8 16.1
02:30 1005 29.68 835 24.66 -4.5 24 70 -9.1 15.6
02:35 1006 29.71 835 24.66 -4.7 23.6 71 -9.2 15.5
02:40 1006 29.71 835 24.66 -4.9 23.3 72 -9.2 15.5
02:45 1006 29.71 835 24.66 -5.1 22.9 73 -9.2 15.4
02:50 1006 29.71 835 24.66 -5.2 22.7 74 -9.2 15.5
02:55 1006 29.71 835 24.66 -5.3 22.5 74 -9.2 15.5
03:00 1006 29.71 835 24.66 -5.4 22.2 74 -9.3 15.3
03:05 1006 29.71 835 24.66 -5.5 22 75 -9.3 15.3
03:10 1006 29.71 835 24.66 -5.5 22.2 76 -9.1 15.6
03:15 1006 29.71 835 24.66 -5.3 22.5 77 -8.6 16.4
03:20 1006 29.71 835 24.66 -5 23.1 74 -8.9 15.9
03:25 1006 29.71 835 24.66 -4.9 23.2 75 -8.7 16.3
03:30 1006 29.71 835 24.66 -4.9 23.2 73 -8.9 15.9
03:35 1006 29.71 835 24.66 -5.1 22.9 73 -9.1 15.6
03:40 1006 29.71 835 24.66 -5.3 22.6 74 -9.3 15.3
03:45 1006 29.71 835 24.66 -5.6 22 75 -9.4 15.2
03:50 1006 29.71 835 24.66 -6 21.2 78 -9.3 15.2
03:55 1006 29.71 835 24.66 -6.1 21.1 79 -9.2 15.5
04:00 1006 29.71 835 24.66 -6 21.3 78 -9.2 15.5
04:05 1006 29.71 835 24.66 -6 21.1 78 -9.3 15.2
04:10 1006 29.71 835 24.66 -6.3 20.6 78 -9.7 14.6
04:15 1006 29.71 835 24.66 -6.6 20.1 79 -9.7 14.5
04:20 1006 29.71 835 24.66 -6.6 20.1 79 -9.7 14.6
04:25 1006 29.71 835 24.66 -6.4 20.5 77 -9.7 14.5
04:30 1006 29.71 835 24.66 -6.1 21 76 -9.7 14.5
04:35 1006 29.71 835 24.66 -6.1 21 74 -10.1 13.9
04:40 1006 29.71 835 24.66 -6.6 20.1 74 -10.5 13.1
04:45 1006 29.71 835 24.66 -7.1 19.3 77 -10.5 13.1
04:50 1005 29.68 835 24.66 -7 19.5 78 -10.1 13.7
04:55 1005 29.68 835 24.66 -6.7 19.9 80 -9.7 14.5
05:00 1005 29.68 835 24.66 -6.6 20 79 -9.8 14.4
05:05 1005 29.68 834 24.63 -6.8 19.8 82 -9.4 15.2
05:10 1005 29.68 835 24.66 -6.4 20.4 78 -9.6 14.7
05:15 1005 29.68 835 24.66 -6.1 21 77 -9.4 15
05:20 1005 29.68 835 24.66 -6.1 21 78 -9.3 15.3
05:25 1005 29.68 835 24.66 -6.1 21 76 -9.6 14.6
05:30 1006 29.71 835 24.66 -6.4 20.5 77 -9.8 14.4
05:35 1006 29.71 835 24.66 -6.7 19.9 77 -10.2 13.7
05:40 1006 29.71 835 24.66 -6.9 19.6 77 -10.2 13.6
05:45 1006 29.71 835 24.66 -6.9 19.6 79 -9.9 14.2
05:50 1006 29.71 835 24.66 -6.4 20.6 79 -9.5 14.9
05:55 1006 29.71 835 24.66 -6 21.3 76 -9.6 14.8
06:00 1006 29.71 835 24.66 -5.7 21.7 75 -9.4 15.1
06:05 1006 29.71 835 24.66 -5.5 22 71 -10.1 13.9
06:10 1006 29.71 835 24.66 -5.3 22.4 70 -10 13.9
06:15 1006 29.71 835 24.66 -5.4 22.4 68 -10.4 13.3
06:20 1006 29.71 835 24.66 -5.5 22.1 69 -10.4 13.3
06:25 1006 29.71 835 24.66 -5.6 22 70 -10.2 13.6
06:30 1006 29.71 835 24.66 -5.4 22.3 69 -10.3 13.5
06:35 1006 29.71 835 24.66 -5.6 21.9 71 -10.1 13.8
06:40 1006 29.71 835 24.66 -5.9 21.5 72 -10.1 13.9
06:45 1006 29.71 835 24.66 -6.2 20.8 71 -10.6 12.8
06:50 1006 29.71 835 24.66 -6.4 20.4 76 -10.1 13.9
06:55 1006 29.71 835 24.66 -6.9 19.5 77 -10.3 13.4
07:00 1006 29.71 835 24.66 -7.2 19 77 -10.6 12.9
07:05 1006 29.71 835 24.66 -7.4 18.7 77 -10.8 12.5
07:10 1006 29.71 835 24.66 -7.6 18.4 77 -10.9 12.3
07:15 1006 29.71 835 24.66 -7.5 18.5 77 -10.8 12.6
07:20 1006 29.71 835 24.66 -7.3 18.9 77 -10.7 12.8
07:25 1006 29.71 835 24.66 -7.2 19.1 77 -10.5 13.1
07:30 1006 29.71 835 24.66 -7.2 19 77 -10.6 12.9
07:35 1006 29.71 835 24.66 -7.3 18.8 78 -10.6 12.9
07:40 1006 29.71 835 24.66 -7.3 18.9 76 -10.7 12.7
07:45 1006 29.71 835 24.66 -7.4 18.6 76 -10.9 12.4
07:50 1006 29.71 835 24.66 -7.6 18.3 76 -11.1 12.1
07:55 1006 29.71 835 24.66 -7.9 17.8 77 -11.2 11.9
08:00 1006 29.71 836 24.69 -8 17.6 78 -11.2 11.8
08:05 1006 29.71 836 24.69 -8 17.6 78 -11.2 11.9
08:10 1006 29.71 836 24.69 -8.2 17.3 80 -11 12.2
08:15 1006 29.71 836 24.69 -8.3 17.1 81 -10.9 12.3
08:20 1007 29.74 836 24.69 -8.3 17.1 79 -11.3 11.6
08:25 1007 29.74 836 24.69 -8.6 16.6 77 -11.9 10.6
08:30 1007 29.74 836 24.69 -9 15.9 78 -12.1 10.3
08:35 1007 29.74 836 24.69 -9.1 15.5 81 -11.9 10.6
08:40 1007 29.74 836 24.69 -9.3 15.2 85 -11.5 11.3
08:45 1007 29.74 836 24.69 -9.8 14.4 88 -11.4 11.5
08:50 1007 29.74 836 24.69 -9.8 14.4 90 -11.2 11.9
08:55 1007 29.74 836 24.69 -9.7 14.6 90 -11 12.2
09:00 1007 29.74 836 24.69 -9.6 14.6 90 -10.9 12.3
09:05 1007 29.74 836 24.69 -9.5 14.8 90 -10.8 12.5
09:10 1007 29.74 836 24.69 -9.5 14.9 90 -10.9 12.4
09:15 1007 29.74 836 24.69 -9.8 14.4 89 -11.3 11.6
09:20 1007 29.74 836 24.69 -9.9 14.1 90 -11.3 11.6
09:25 1007 29.74 837 24.72 -9.9 14.2 90 -11.3 11.7
09:30 1007 29.74 837 24.72 -9.8 14.3 90 -11.1 12
09:35 1007 29.74 837 24.72 -9.8 14.4 89 -11.3 11.7
09:40 1007 29.74 837 24.72 -10.1 13.8 90 -11.5 11.4
09:45 1007 29.74 837 24.72 -10.1 13.9 90 -11.3 11.6
09:50 1007 29.74 837 24.72 -9.8 14.4 90 -11.1 12.1
09:55 1007 29.74 837 24.72 -9.4 15.1 90 -10.7 12.8
10:00 1007 29.74 836 24.69 -9.3 15.3 91 -10.5 13.2
10:05 1007 29.74 837 24.72 -9 15.8 91 -10.2 13.6
10:10 1007 29.74 837 24.72 -8.7 16.4 91 -9.9 14.3
10:15 1007 29.74 837 24.72 -8.4 16.8 90 -9.7 14.5
10:20 1007 29.74 837 24.72 -8.3 17 91 -9.6 14.7
10:25 1007 29.74 837 24.72 -8.2 17.3 91 -9.4 15.1
10:30 1007 29.74 837 24.72 -7.7 18.2 91 -8.9 16.1
10:35 1007 29.74 837 24.72 -7.4 18.7 91 -8.6 16.5
10:40 1008 29.77 837 24.72 -7.4 18.7 89 -8.8 16.1
10:45 1008 29.77 837 24.72 -7.9 17.7 89 -9.4 15.1
10:50 1008 29.77 837 24.72 -8.1 17.4 90 -9.6 14.8
10:55 1008 29.77 837 24.72 -8.3 17.1 90 -9.6 14.6
11:00 1008 29.77 837 24.72 -8.3 17.1 90 -9.6 14.7
11:05 1008 29.77 837 24.72 -8.2 17.2 91 -9.5 14.9
11:10 1008 29.77 837 24.72 -8 17.6 90 -9.4 15.1
11:15 1008 29.77 837 24.72 -8.1 17.5 91 -9.3 15.3
11:20 1007 29.74 837 24.72 -7.7 18.1 91 -9 15.8
11:25 1007 29.74 837 24.72 -7.5 18.5 91 -8.8 16.2
11:30 1007 29.74 837 24.72 -7.4 18.7 90 -8.7 16.3
11:35 1007 29.74 837 24.72 -7.4 18.8 91 -8.6 16.5
11:40 1007 29.74 837 24.72 -7.1 19.2 91 -8.3 17.1
11:45 1007 29.74 836 24.69 -6.7 19.9 91 -8 17.7
11:50 1007 29.74 836 24.69 -6.5 20.3 91 -7.7 18.2
11:55 1007 29.74 836 24.69 -6.1 21.1 91 -7.3 18.9
12:00 1007 29.74 836 24.69 -6 21.2 90 -7.4 18.8
12:05 1007 29.74 836 24.69 -6.1 21 91 -7.4 18.8
12:10 1007 29.74 836 24.69 -6 21.1 91 -7.2 19
12:15 1007 29.74 836 24.69 -5.8 21.5 91 -7 19.4
12:20 1007 29.74 836 24.69 -5.7 21.8 91 -7 19.5
12:25 1007 29.74 836 24.69 -5.8 21.5 90 -7.1 19.2
12:30 1007 29.74 836 24.69 -5.9 21.4 91 -7.2 19.1
12:35 1007 29.74 836 24.69 -6.1 21.1 91 -7.3 18.9
12:40 1007 29.74 836 24.69 -6.1 21 92 -7.2 19
12:45 1007 29.74 836 24.69 -6 21.3 92 -7.1 19.2
12:50 1007 29.74 836 24.69 -5.7 21.7 92 -6.9 19.7
12:55 1007 29.74 836 24.69 -5.5 22 91 -6.8 19.8
13:00 1007 29.74 836 24.69 -5.6 21.8 91 -6.9 19.5
13:05 1007 29.74 836 24.69 -5.7 21.8 91 -7 19.5
13:10 1007 29.74 836 24.69 -5.6 21.9 91 -6.8 19.7
13:15 1007 29.74 836 24.69 -5.6 22 91 -6.8 19.8
13:20 1007 29.74 836 24.69 -5.6 21.9 90 -6.9 19.5
13:25 1007 29.74 836 24.69 -6 21.3 91 -7.2 19
13:30 1007 29.74 836 24.69 -6 21.3 91 -7.2 19.1
13:35 1007 29.74 836 24.69 -5.8 21.5 92 -7 19.4
13:40 1007 29.74 836 24.69 -5.9 21.4 91 -7.2 19.1
13:45 1007 29.74 836 24.69 -5.9 21.5 91 -7.1 19.3
13:50 1007 29.74 836 24.69 -5.7 21.8 90 -7 19.4
13:55 1007 29.74 836 24.69 -5.7 21.7 90 -7.1 19.1
14:00 1007 29.74 836 24.69 -5.8 21.6 91 -7 19.3
14:05 1007 29.74 836 24.69 -5.6 22 91 -6.9 19.6
14:10 1007 29.74 836 24.69 -5.6 21.9 90 -7 19.3
14:15 1007 29.74 836 24.69 -5.8 21.6 90 -7.1 19.2
14:20 1007 29.74 836 24.69 -5.7 21.8 90 -7.1 19.3
14:25 1007 29.74 836 24.69 -5.7 21.7 90 -7.1 19.2
14:30 1007 29.74 836 24.69 -5.8 21.5 91 -7 19.4
14:35 1007 29.74 836 24.69 -5.7 21.8 90 -7 19.4
14:40 1007 29.74 836 24.69 -5.7 21.7 90 -7.2 19.1
14:45 1007 29.74 836 24.69 -5.8 21.6 91 -7 19.4
14:50 1007 29.74 836 24.69 -5.6 21.9 90 -7 19.4
14:55 1007 29.74 836 24.69 -5.8 21.6 90 -7.1 19.2
15:00 1007 29.74 836 24.69 -5.7 21.7 91 -7 19.4
15:05 1007 29.74 836 24.69 -5.7 21.7 90 -7 19.3
15:10 1007 29.74 836 24.69 -5.6 22 90 -6.9 19.5
15:15 1007 29.74 836 24.69 -5.5 22.2 89 -6.9 19.5
15:20 1007 29.74 836 24.69 -5.5 22.2 90 -6.8 19.7
15:25 1007 29.74 836 24.69 -5.3 22.5 90 -6.7 20
15:30 1007 29.74 836 24.69 -5.2 22.6 89 -6.7 19.9
15:35 1007 29.74 836 24.69 -5.3 22.5 88 -6.9 19.5
15:40 1007 29.74 836 24.69 -5.5 22.1 88 -7.2 19
15:45 1007 29.74 836 24.69 -5.7 21.7 88 -7.4 18.6
15:50 1007 29.74 836 24.69 -5.8 21.5 88 -7.5 18.5
15:55 1007 29.74 836 24.69 -5.7 21.7 87 -7.5 18.4
16:00 1007 29.74 836 24.69 -5.8 21.6 88 -7.4 18.6
16:05 1007 29.74 836 24.69 -5.7 21.8 87 -7.4 18.6
16:10 1007 29.74 836 24.69 -5.7 21.8 88 -7.4 18.7
16:15 1007 29.74 836 24.69 -5.6 21.9 89 -7.2 19
16:20 1007 29.74 836 24.69 -5.4 22.2 88 -7.1 19.2
16:25 1007 29.74 836 24.69 -5.4 22.2 88 -7.2 19.1
16:30 1007 29.74 836 24.69 -5.5 22 87 -7.4 18.7
16:35 1007 29.74 836 24.69 -5.7 21.7 87 -7.5 18.6
16:40 1007 29.74 836 24.69 -5.7 21.7 88 -7.5 18.6
16:45 1007 29.74 836 24.69 -5.5 22 87 -7.3 18.8
16:50 1007 29.74 836 24.69 -5.6 22 87 -7.4 18.6
16:55 1007 29.74 836 24.69 -5.6 21.9 87 -7.4 18.7
17:00 1007 29.74 836 24.69 -5.6 21.9 88 -7.4 18.8
17:05 1007 29.74 836 24.69 -5.6 21.9 88 -7.3 18.8
17:10 1007 29.74 836 24.69 -5.6 21.9 88 -7.2 19
17:15 1007 29.74 837 24.72 -5.5 22.1 88 -7.2 19.1
17:20 1007 29.74 837 24.72 -5.5 22 88 -7.3 18.9
17:25 1007 29.74 837 24.72 -5.5 22.1 87 -7.3 18.9
17:30 1008 29.77 837 24.72 -5.5 22.1 87 -7.3 18.9
17:35 1008 29.77 837 24.72 -5.6 21.9 88 -7.3 18.8
17:40 1008 29.77 837 24.72 -5.5 22 87 -7.3 18.8
17:45 1008 29.77 837 24.72 -5.6 21.9 87 -7.4 18.7
17:50 1008 29.77 837 24.72 -5.6 22 87 -7.3 18.8
17:55 1008 29.77 837 24.72 -5.5 22.1 87 -7.3 18.8
18:00 1008 29.77 837 24.72 -5.5 22.1 87 -7.3 18.8
18:05 1008 29.77 837 24.72 -5.6 22 87 -7.4 18.7
18:10 1008 29.77 837 24.72 -5.6 21.9 87 -7.4 18.6
18:15 1008 29.77 837 24.72 -5.6 21.8 88 -7.3 18.8
18:20 1008 29.77 837 24.72 -5.6 22 88 -7.3 18.8
18:25 1008 29.77 837 24.72 -5.6 22 88 -7.3 18.8
18:30 1008 29.77 837 24.72 -5.5 22 88 -7.2 19
18:35 1008 29.77 837 24.72 -5.6 21.9 88 -7.2 19
18:40 1008 29.77 837 24.72 -5.7 21.8 89 -7.3 18.9
18:45 1008 29.77 837 24.72 -5.7 21.7 88 -7.3 18.8
18:50 1008 29.77 837 24.72 -5.8 21.5 89 -7.4 18.8
18:55 1008 29.77 837 24.72 -5.9 21.5 89 -7.4 18.7
19:00 1008 29.77 837 24.72 -5.9 21.5 89 -7.4 18.7
19:05 1008 29.77 837 24.72 -5.9 21.4 89 -7.3 18.8
19:10 1008 29.77 837 24.72 -5.8 21.6 89 -7.4 18.7
19:15 1008 29.77 837 24.72 -5.9 21.3 89 -7.4 18.7
19:20 1008 29.77 837 24.72 -5.9 21.4 90 -7.4 18.8
19:25 1008 29.77 837 24.72 -5.8 21.6 89 -7.3 18.8
19:30 1008 29.77 837 24.72 -5.8 21.7 88 -7.4 18.7
19:35 1008 29.77 837 24.72 -5.8 21.6 88 -7.4 18.6
19:40 1008 29.77 837 24.72 -5.7 21.7 88 -7.4 18.7
19:45 1008 29.77 837 24.72 -5.7 21.7 88 -7.4 18.7
19:50 1008 29.77 837 24.72 -5.8 21.5 89 -7.4 18.7
19:55 1008 29.77 837 24.72 -5.9 21.5 89 -7.4 18.7
20:00 1008 29.77 837 24.72 -5.9 21.4 89 -7.4 18.7
20:05 1008 29.77 837 24.72 -5.9 21.3 89 -7.4 18.7
20:10 1008 29.77 837 24.72 -6 21.2 89 -7.5 18.6
20:15 1008 29.77 837 24.72 -6 21.3 90 -7.4 18.6
20:20 1008 29.77 837 24.72 -6 21.2 89 -7.5 18.5
20:25 1008 29.77 837 24.72 -6.1 21.1 90 -7.5 18.5
20:30 1008 29.77 837 24.72 -6.1 21.1 90 -7.5 18.5
20:35 1008 29.77 837 24.72 -6.1 21 90 -7.6 18.4
20:40 1008 29.77 837 24.72 -6.2 20.9 90 -7.5 18.5
20:45 1008 29.77 837 24.72 -6.1 21 90 -7.5 18.5
20:50 1008 29.77 837 24.72 -6.1 21 90 -7.5 18.5
20:55 1008 29.77 837 24.72 -6.1 21 90 -7.5 18.5
21:00 1008 29.77 837 24.72 -6.1 21 90 -7.5 18.5
21:05 1008 29.77 837 24.72 -6 21.1 90 -7.4 18.6
21:10 1008 29.77 837 24.72 -6 21.2 90 -7.4 18.6
21:15 1008 29.77 837 24.72 -6 21.2 90 -7.4 18.6
21:20 1008 29.77 837 24.72 -6 21.2 90 -7.4 18.7
21:25 1008 29.77 837 24.72 -6 21.2 90 -7.4 18.6
21:30 1008 29.77 837 24.72 -5.9 21.3 89 -7.4 18.7
21:35 1008 29.77 837 24.72 -6 21.3 89 -7.4 18.6
21:40 1008 29.77 837 24.72 -5.9 21.3 89 -7.5 18.5
21:45 1008 29.77 837 24.72 -5.9 21.3 87 -7.8 17.9
21:50 1008 29.77 837 24.72 -5.9 21.3 85 -8 17.6
21:55 1008 29.77 837 24.72 -5.9 21.5 85 -7.9 17.7
22:00 1008 29.77 837 24.72 -5.8 21.5 85 -8 17.7
22:05 1008 29.77 837 24.72 -5.9 21.5 85 -8 17.6
22:10 1008 29.77 837 24.72 -5.9 21.4 84 -8.1 17.4
22:15 1008 29.77 837 24.72 -5.9 21.4 85 -8 17.6
22:20 1008 29.77 837 24.72 -6.1 21.1 86 -8 17.6
22:25 1008 29.77 837 24.72 -6.1 21 87 -8 17.7
22:30 1008 29.77 837 24.72 -6.1 21 87 -7.9 17.7
22:35 1008 29.77 837 24.72 -6 21.1 86 -8 17.7
22:40 1008 29.77 837 24.72 -6.1 21 87 -8 17.6
22:45 1008 29.77 837 24.72 -6.2 20.8 87 -8.1 17.5
22:50 1008 29.77 837 24.72 -6.2 20.8 86 -8.1 17.4
22:55 1008 29.77 837 24.72 -6.1 21.1 82 -8.7 16.4
23:00 1008 29.77 838 24.75 -5.8 21.5 81 -8.7 16.4
23:05 1008 29.77 838 24.75 -5.8 21.5 81 -8.5 16.6
23:10 1008 29.77 838 24.75 -5.8 21.5 83 -8.3 17
23:15 1009 29.8 838 24.75 -5.9 21.4 84 -8.2 17.2
23:20 1009 29.8 838 24.75 -6.1 21.1 86 -8.1 17.5
23:25 1009 29.8 838 24.75 -6.3 20.6 87 -8.1 17.4
23:30 1009 29.8 838 24.75 -6.3 20.6 87 -8.1 17.4
23:35 1009 29.8 838 24.75 -6.4 20.5 88 -8.1 17.5
23:40 1009 29.8 838 24.75 -6.7 19.9 90 -8.1 17.3
23:45 1009 29.8 838 24.75 -6.7 19.9 90 -8.1 17.4
23:50 1009 29.8 838 24.75 -6.6 20.1 90 -8 17.6
23:55 1009 29.8 838 24.75 -6.6 20.2 89 -8 17.5
24:00 1009 29.8 838 24.75 -6.5 20.3 88 -8.2 17.2